M I D A S
Marine Information and Data Acquisition System
Tripno 1044 of the Zeeleeuw from 2006-03-03 08:01:59 to 2006-03-03 13:42:36
Back to CruiseResearch ActivitiesStationsMapUnderway DataData graphs

EquipmentUnitsComment
TimeDGPSUTC
LatitudeDGPSDM.mWGS84
LongitudeDGPSDM.mWGS84
HeadingGyrodeg 
SOGDGPSknotsSpeed over ground
COGDGPSdegCourse over ground
DepthEcho soundermeters200 kHz
Missing or incorrect values are displayed as -999
Navigation data collected by the RV Zeeleeuw from 2006-03-03 07:50:42 to 2006-03-03 13:57:16
Time Latitude Longitude Heading SOG COG Depth
2006-03-03 07:51:48 51°13.613 2°56.039 116.2 3.2 294 -999
2006-03-03 07:52:48 51°13.639 2°55.943 116.2 4.4 293 -999
2006-03-03 07:53:48 51°13.678 2°55.819 123.2 5.5 299 -999
2006-03-03 07:54:47 51°13.708 2°55.717 111.8 2.9 292 4.8
2006-03-03 07:55:48 51°13.725 2°55.736 55.8 1.2 31 -999
2006-03-03 07:56:47 51°13.723 2°55.721 43.2 0.7 252 39.4
2006-03-03 07:57:48 51°13.747 2°55.715 359 3 348 -999
2006-03-03 07:58:47 51°13.825 2°55.64 334.3 7.4 330 8.8
2006-03-03 07:59:47 51°13.949 2°55.54 340.8 8.8 335 8.2
2006-03-03 08:00:47 51°14.084 2°55.445 341 8.7 335 8.3
2006-03-03 08:01:47 51°14.223 2°55.317 328.4 10.1 322 8.2
2006-03-03 08:02:47 51°14.338 2°55.108 310.1 10.8 303 -999
2006-03-03 08:03:47 51°14.399 2°54.817 285.1 12.3 277 8.2
2006-03-03 08:04:47 51°14.409 2°54.467 275.3 13.8 267 8.3
2006-03-03 08:05:47 51°14.328 2°54.128 244.5 13.9 240 5.6
2006-03-03 08:06:47 51°14.205 2°53.813 247.2 14.1 242 7.3
2006-03-03 08:07:47 51°14.098 2°53.479 241.6 14.3 236 7.6
2006-03-03 08:08:47 51°13.963 2°53.166 245.3 14.4 242 7.8
2006-03-03 08:09:47 51°13.849 2°52.829 241 14.4 235 8.1
2006-03-03 08:10:47 51°13.714 2°52.515 245.9 14.4 242 8.2
2006-03-03 08:11:47 51°13.593 2°52.187 239.6 14.3 235 8.4
2006-03-03 08:12:47 51°13.473 2°51.859 248.5 14.3 243 8.5
2006-03-03 08:13:47 51°13.341 2°51.541 239.5 14.3 236 8.5
2006-03-03 08:14:47 51°13.226 2°51.207 245.3 14.5 240 8.6
2006-03-03 08:15:47 51°13.092 2°50.891 241.4 14.3 238 8.6
2006-03-03 08:16:47 51°12.975 2°50.558 242.6 14.4 238 8.7
2006-03-03 08:17:47 51°12.847 2°50.234 245.8 14.5 241 8.7
2006-03-03 08:18:47 51°12.722 2°49.908 240.8 14.3 236 8.7
2006-03-03 08:19:47 51°12.606 2°49.575 246.3 14.4 242 8.8
2006-03-03 08:20:47 51°12.485 2°49.248 242.8 14.3 239 8.7
2006-03-03 08:21:47 51°12.385 2°48.903 250.1 14.4 245 8.9
2006-03-03 08:22:47 51°12.278 2°48.562 251.8 14.4 247 9.2
2006-03-03 08:23:47 51°12.179 2°48.215 248 14.4 243 9.3
2006-03-03 08:24:47 51°12.082 2°47.867 252.8 14.4 248 9.4
2006-03-03 08:25:47 51°11.983 2°47.52 251.8 14.4 248 9.6
2006-03-03 08:26:47 51°11.895 2°47.167 251 14.4 247 9.8
2006-03-03 08:27:47 51°11.806 2°46.813 253.4 14.4 249 10
2006-03-03 08:28:47 51°11.714 2°46.462 254 14.3 250 10.2
2006-03-03 08:29:47 51°11.626 2°46.108 250.8 14.4 247 10.3
2006-03-03 08:30:47 51°11.54 2°45.752 253.3 14.3 249 10.2
2006-03-03 08:31:47 51°11.442 2°45.405 249.1 14.4 246 10.1
2006-03-03 08:32:47 51°11.349 2°45.054 248.9 14.4 244 10
2006-03-03 08:33:47 51°11.253 2°44.705 252 14.3 247 9.8
2006-03-03 08:34:47 51°11.158 2°44.358 247.5 14.4 244 9.7
2006-03-03 08:35:47 51°11.071 2°44.005 253.9 14.3 250 9.7
2006-03-03 08:36:47 51°10.984 2°43.653 253.2 14.4 250 9.5
2006-03-03 08:37:47 51°10.899 2°43.3 250.9 14.2 249 9.5
2006-03-03 08:38:47 51°10.819 2°42.944 252.4 14.3 249 9.5
2006-03-03 08:39:47 51°10.734 2°42.591 254.7 14.3 251 9.4
2006-03-03 08:40:47 51°10.653 2°42.234 252.3 14.4 250 9.5
2006-03-03 08:41:47 51°10.569 2°41.88 249.3 14.4 247 9.4
2006-03-03 08:42:47 51°10.476 2°41.534 250.4 14.4 248 9.4
2006-03-03 08:43:47 51°10.388 2°41.184 247.8 14.2 245 9.4
2006-03-03 08:44:47 51°10.302 2°40.833 252.4 14.2 249 9.4
2006-03-03 08:45:47 51°10.22 2°40.481 251.1 14.3 249 9.5
2006-03-03 08:46:47 51°10.136 2°40.13 248.3 14.2 247 9.4
2006-03-03 08:47:47 51°10.05 2°39.779 252.4 14.3 251 9.5
2006-03-03 08:48:47 51°9.955 2°39.435 244.8 14.1 245 9.5
2006-03-03 08:49:47 51°9.868 2°39.085 249.4 14.2 248 9.7
2006-03-03 08:50:47 51°9.772 2°38.741 243.7 14.1 243 9.7
2006-03-03 08:51:47 51°9.677 2°38.405 247.5 12.5 246 9.8
2006-03-03 08:52:47 51°9.605 2°38.19 236.2 7.8 236 10
2006-03-03 08:53:47 51°9.554 2°38.028 246.3 5.8 247 10
2006-03-03 08:54:47 51°9.519 2°37.92 229.4 3.2 238 10
2006-03-03 08:55:48 51°9.517 2°37.887 215.7 1 290 -999
2006-03-03 08:56:47 51°9.519 2°37.864 217.1 1 279 10.2
2006-03-03 08:57:47 51°9.52 2°37.839 218.3 1 275 10.3
2006-03-03 08:58:47 51°9.519 2°37.808 216.9 1.3 256 10.4
2006-03-03 08:59:47 51°9.514 2°37.774 212.6 1.3 257 10.4
2006-03-03 09:00:47 51°9.509 2°37.739 212.9 1.4 257 10.5
2006-03-03 09:01:47 51°9.499 2°37.702 203.9 1.7 244 10.6
2006-03-03 09:02:47 51°9.483 2°37.666 183.6 1.7 233 10.5
2006-03-03 09:03:47 51°9.467 2°37.632 181.2 1.6 237 10.4
2006-03-03 09:04:47 51°9.453 2°37.597 185.7 1.5 238 10.4
2006-03-03 09:05:47 51°9.44 2°37.56 189.8 1.5 241 10.4
2006-03-03 09:06:47 51°9.427 2°37.525 194.8 1.5 239 10.4
2006-03-03 09:07:47 51°9.415 2°37.488 199.3 1.5 241 10.4
2006-03-03 09:08:47 51°9.404 2°37.451 203.2 1.6 247 10.4
2006-03-03 09:09:47 51°9.393 2°37.413 206.5 1.6 243 10.4
2006-03-03 09:10:47 51°9.381 2°37.375 209.3 1.5 242 10.5
2006-03-03 09:11:47 51°9.371 2°37.337 212 1.5 242 10.5
2006-03-03 09:12:47 51°9.36 2°37.298 215.2 1.5 241 10.6
2006-03-03 09:13:47 51°9.349 2°37.259 218.2 1.6 244 10.6
2006-03-03 09:14:47 51°9.339 2°37.218 222.3 1.7 250 10.7
2006-03-03 09:15:47 51°9.33 2°37.177 227.4 1.7 249 10.7
2006-03-03 09:16:47 51°9.321 2°37.136 232.4 1.7 253 10.9
2006-03-03 09:17:47 51°9.312 2°37.095 236.5 1.7 255 10.9
2006-03-03 09:18:47 51°9.304 2°37.053 239.4 1.7 251 10.9
2006-03-03 09:19:47 51°9.296 2°37.012 242.4 1.6 254 11
2006-03-03 09:20:47 51°9.288 2°36.97 245.4 1.6 247 11.1
2006-03-03 09:21:47 51°9.281 2°36.929 247.6 1.6 248 11.2
2006-03-03 09:22:47 51°9.273 2°36.886 249.6 1.6 253 11.4
2006-03-03 09:23:47 51°9.265 2°36.844 251 1.7 258 11.6
2006-03-03 09:24:47 51°9.258 2°36.801 252.5 1.7 258 11.5
2006-03-03 09:25:47 51°9.251 2°36.758 253.6 1.7 252 11.8
2006-03-03 09:26:47 51°9.243 2°36.716 254.5 1.7 255 11.8
2006-03-03 09:27:47 51°9.237 2°36.673 255.9 1.7 253 12
2006-03-03 09:28:47 51°9.229 2°36.63 257.7 1.7 253 12.2
2006-03-03 09:29:47 51°9.222 2°36.587 260 1.7 258 12.2
2006-03-03 09:30:47 51°9.215 2°36.544 262.1 1.7 259 12.5
2006-03-03 09:31:47 51°9.208 2°36.501 264.5 1.7 255 12.6
2006-03-03 09:32:47 51°9.201 2°36.457 267.2 1.7 256 12.8
2006-03-03 09:33:47 51°9.194 2°36.413 268.9 1.7 253 13
2006-03-03 09:34:47 51°9.187 2°36.369 270.1 1.6 258 13.1
2006-03-03 09:35:47 51°9.181 2°36.324 271.3 1.7 260 13.2
2006-03-03 09:36:47 51°9.174 2°36.28 271.9 1.7 256 13.4
2006-03-03 09:37:47 51°9.168 2°36.236 273.7 1.8 260 13.5
2006-03-03 09:38:47 51°9.162 2°36.176 282.8 2.8 268 13.7
2006-03-03 09:39:47 51°9.166 2°36.092 304.6 3.4 281 14
2006-03-03 09:40:47 51°9.187 2°36.01 333.5 3.2 300 14.2
2006-03-03 09:41:47 51°9.219 2°35.953 2.9 2.6 323 14.2
2006-03-03 09:42:47 51°9.253 2°35.93 32.7 1.9 350 14.5
2006-03-03 09:43:47 51°9.275 2°35.936 60.4 1.1 32 14.3
2006-03-03 09:44:47 51°9.281 2°35.961 88.1 1.2 102 14.5
2006-03-03 09:45:47 51°9.264 2°35.992 115 2 145 14.2
2006-03-03 09:46:47 51°9.225 2°36.013 142.1 2.8 172 14.2
2006-03-03 09:47:47 51°9.171 2°36.006 169.4 3.5 191 14.3
2006-03-03 09:48:47 51°9.112 2°35.959 203.8 4.2 220 14.1
2006-03-03 09:49:47 51°9.069 2°35.866 246.7 4.4 247 14.1
2006-03-03 09:50:47 51°9.06 2°35.755 294.3 4 276 14.4
2006-03-03 09:51:47 51°9.081 2°35.667 339.4 3.1 304 14.5
2006-03-03 09:52:47 51°9.113 2°35.625 22.5 1.9 336 14.4
2006-03-03 09:53:47 51°9.132 2°35.625 65.5 0.8 43 14.6
2006-03-03 09:54:47 51°9.135 2°35.652 86.9 1.3 97 14.5
2006-03-03 09:55:47 51°9.12 2°35.688 111.4 2 140 14.5
2006-03-03 09:56:47 51°9.084 2°35.714 137.7 2.8 166 14.5
2006-03-03 09:57:47 51°9.031 2°35.711 166.5 3.6 193 14.3
2006-03-03 09:58:47 51°8.973 2°35.663 206.8 4.2 220 13.8
2006-03-03 09:59:47 51°8.93 2°35.567 248.2 4.5 247 13.8
2006-03-03 10:00:47 51°8.918 2°35.453 290 4.3 271 14.2
2006-03-03 10:01:47 51°8.936 2°35.353 330.3 3.5 298 14.7
2006-03-03 10:02:47 51°8.971 2°35.286 348.5 3.8 313 14.8
2006-03-03 10:03:47 51°8.996 2°35.16 282 5.8 267 15
2006-03-03 10:04:47 51°8.946 2°35.039 206.9 5.3 216 14.9
2006-03-03 10:05:47 51°8.875 2°35.059 114.2 5.2 117 14.8
2006-03-03 10:06:47 51°8.876 2°35.136 73.6 1.8 78 14.9
2006-03-03 10:07:47 51°8.887 2°35.157 53.5 0.8 13 14.9
2006-03-03 10:08:47 51°8.902 2°35.144 24.9 1.3 318 14.9
2006-03-03 10:09:47 51°8.917 2°35.106 0.9 1.9 297 14.9
2006-03-03 10:10:47 51°8.928 2°35.049 329.8 2.5 282 14.9
2006-03-03 10:11:47 51°8.937 2°34.972 316.4 3.2 281 15.2
2006-03-03 10:12:47 51°8.943 2°34.876 293.5 4.6 271 14.9
2006-03-03 10:13:47 51°8.902 2°34.739 215.9 6.3 217 15.6
2006-03-03 10:14:48 51°8.821 2°34.751 124.4 4.7 138 15.5
2006-03-03 10:15:47 51°8.777 2°34.876 106.3 6 112 15.1
2006-03-03 10:16:47 51°8.739 2°35.032 107.4 6.5 113 14
2006-03-03 10:17:47 51°8.709 2°35.19 90.8 5.9 89 11.8
2006-03-03 10:18:47 51°8.752 2°35.326 61.8 6 55 11.8
2006-03-03 10:19:47 51°8.769 2°35.445 91.5 3.6 95 11.3
2006-03-03 10:20:47 51°8.761 2°35.528 94 2.9 102 10.2
2006-03-03 10:21:47 51°8.745 2°35.599 98.8 2.7 110 9.2
2006-03-03 10:22:47 51°8.736 2°35.666 88.7 2.6 98 8.5
2006-03-03 10:23:47 51°8.743 2°35.736 74.4 2.7 72 8.3
2006-03-03 10:24:47 51°8.765 2°35.802 63.2 3 59 8.4
2006-03-03 10:25:47 51°8.793 2°35.869 65.7 3.1 60 8.6
2006-03-03 10:26:47 51°8.83 2°35.92 45.9 3.1 29 9.1
2006-03-03 10:27:47 51°8.876 2°35.957 45.7 3 27 10
2006-03-03 10:28:47 51°8.912 2°36 58.6 2.5 43 10.6
2006-03-03 10:29:47 51°8.94 2°36.05 62.3 2.5 48 11
2006-03-03 10:30:47 51°8.967 2°36.101 60.6 2.5 48 11.2
2006-03-03 10:31:47 51°8.995 2°36.152 64.3 2.5 51 11.5
2006-03-03 10:32:47 51°9.016 2°36.207 70.8 2.4 61 11.6
2006-03-03 10:33:47 51°9.039 2°36.262 62.8 2.6 51 11.8
2006-03-03 10:34:47 51°9.065 2°36.321 67.8 2.8 59 11.9
2006-03-03 10:35:47 51°9.088 2°36.387 69 2.9 63 11.8
2006-03-03 10:36:47 51°9.114 2°36.45 64.5 2.9 55 12
2006-03-03 10:37:47 51°9.139 2°36.515 69.3 2.9 63 12
2006-03-03 10:38:47 51°9.166 2°36.579 63.1 3 54 12.1
2006-03-03 10:39:47 51°9.195 2°36.641 65.8 2.9 57 12.3
2006-03-03 10:40:47 51°9.216 2°36.707 70.4 2.8 63 12.3
2006-03-03 10:41:47 51°9.24 2°36.77 64.9 2.9 54 12.4
2006-03-03 10:42:47 51°9.267 2°36.831 65.8 2.9 53 12.5
2006-03-03 10:43:47 51°9.287 2°36.896 71.2 2.8 64 12.5
2006-03-03 10:44:47 51°9.307 2°36.963 67.3 2.9 58 12.4
2006-03-03 10:45:47 51°9.332 2°37.026 64.1 2.9 55 12.5
2006-03-03 10:46:47 51°9.354 2°37.091 70.9 2.8 68 12.5
2006-03-03 10:47:47 51°9.371 2°37.16 69.5 2.8 67 12.4
2006-03-03 10:48:47 51°9.397 2°37.222 61.7 2.9 54 12.5
2006-03-03 10:49:47 51°9.424 2°37.284 63.4 2.9 57 12.5
2006-03-03 10:50:47 51°9.447 2°37.35 68.3 2.8 64 12.5
2006-03-03 10:51:47 51°9.466 2°37.419 69.8 2.9 68 12.5
2006-03-03 10:52:47 51°9.484 2°37.489 66.8 2.9 63 12.4
2006-03-03 10:53:47 51°9.509 2°37.555 63.1 2.9 58 12.5
2006-03-03 10:54:48 51°9.531 2°37.624 67.9 2.9 69 12.5
2006-03-03 10:55:47 51°9.539 2°37.698 80.1 2.8 83 12.3
2006-03-03 10:56:47 51°9.55 2°37.772 74.3 2.9 75 12.1
2006-03-03 10:57:47 51°9.553 2°37.853 86.8 3.1 92 11.9
2006-03-03 10:58:47 51°9.539 2°37.936 104.9 3.4 117 11.4
2006-03-03 10:59:48 51°9.495 2°38.007 127 3.7 143 10.8
2006-03-03 11:00:47 51°9.452 2°38.047 136.4 2.9 159 10.5
2006-03-03 11:01:48 51°9.433 2°38.117 73.7 3.3 68 10.3
2006-03-03 11:02:47 51°9.504 2°38.147 9.8 6.3 356 10.6
2006-03-03 11:03:47 51°9.623 2°38.096 353.7 8 341 11.8
2006-03-03 11:04:48 51°9.711 2°37.956 293.6 7.3 276 13.6
2006-03-03 11:05:47 51°9.683 2°37.814 237.4 5.3 238 13.9
2006-03-03 11:06:47 51°9.629 2°37.702 227.8 5.3 231 13.7
2006-03-03 11:07:48 51°9.568 2°37.588 229.7 5.9 229 13.4
2006-03-03 11:08:47 51°9.511 2°37.457 238.2 6.3 238 13.2
2006-03-03 11:09:48 51°9.48 2°37.298 277.7 6.2 269 13.6
2006-03-03 11:10:47 51°9.489 2°37.156 294.9 5 279 14.7
2006-03-03 11:11:47 51°9.501 2°37.033 290.3 4.5 274 15.4
2006-03-03 11:12:47 51°9.5 2°36.921 278.5 4.1 266 15.5
2006-03-03 11:13:47 51°9.493 2°36.816 278.2 3.8 265 15.5
2006-03-03 11:14:47 51°9.483 2°36.722 265.2 3.5 255 15.3
2006-03-03 11:15:47 51°9.465 2°36.638 255 3.2 251 15.3
2006-03-03 11:16:47 51°9.446 2°36.565 247.4 2.9 248 15.3
2006-03-03 11:17:48 51°9.425 2°36.491 248.2 3.1 246 15.4
2006-03-03 11:18:47 51°9.403 2°36.417 242.2 3.2 244 15.4
2006-03-03 11:19:47 51°9.376 2°36.341 237.6 3.3 240 15.4
2006-03-03 11:20:47 51°9.349 2°36.266 238.2 3.2 239 15.5
2006-03-03 11:21:47 51°9.322 2°36.193 240.7 3.1 239 15.6
2006-03-03 11:22:47 51°9.297 2°36.12 242.4 3.1 241 15.5
2006-03-03 11:23:47 51°9.273 2°36.048 242.1 3.1 243 15.6
2006-03-03 11:24:48 51°9.248 2°35.975 241.5 3.1 242 15.6
2006-03-03 11:25:48 51°9.223 2°35.904 240.9 3.1 242 15.7
2006-03-03 11:26:48 51°9.198 2°35.833 240.5 3 238 15.7
2006-03-03 11:27:47 51°9.173 2°35.764 239.1 3 240 15.8
2006-03-03 11:28:48 51°9.147 2°35.694 238.8 3.1 240 15.9
2006-03-03 11:29:47 51°9.122 2°35.626 239.1 3 239 15.9
2006-03-03 11:30:48 51°9.095 2°35.555 238.3 3.1 239 16
2006-03-03 11:31:47 51°9.07 2°35.487 238.1 3.1 240 16
2006-03-03 11:32:47 51°9.045 2°35.418 239 3 238 16.1
2006-03-03 11:33:47 51°9.02 2°35.347 240.1 3.1 241 16.1
2006-03-03 11:34:48 51°8.994 2°35.274 240 3.1 242 16.2
2006-03-03 11:35:48 51°8.97 2°35.204 240.5 3.1 242 16.2
2006-03-03 11:36:47 51°8.945 2°35.134 241.6 3.1 242 16.3
2006-03-03 11:37:48 51°8.92 2°35.061 242 3.1 241 16.4
2006-03-03 11:38:48 51°8.896 2°34.99 241 3.1 239 16.4
2006-03-03 11:39:47 51°8.871 2°34.922 237.2 3 239 16.4
2006-03-03 11:40:48 51°8.843 2°34.853 234.8 3 237 16.5
2006-03-03 11:41:47 51°8.816 2°34.79 233.7 2.9 235 16.6
2006-03-03 11:42:48 51°8.787 2°34.725 233.7 2.9 234 16.6
2006-03-03 11:43:47 51°8.76 2°34.663 234.4 2.8 235 16.9
2006-03-03 11:44:48 51°8.733 2°34.59 247.5 3.4 244 17
2006-03-03 11:45:47 51°8.713 2°34.504 263.2 3.7 254 17
2006-03-03 11:46:47 51°8.701 2°34.409 274.2 3.7 261 17
2006-03-03 11:47:47 51°8.697 2°34.315 285.4 3.6 269 17.1
2006-03-03 11:48:48 51°8.705 2°34.223 305.5 3.4 285 17.4
2006-03-03 11:49:48 51°8.729 2°34.146 329.5 3.3 304 16.8
2006-03-03 11:50:48 51°8.761 2°34.094 349.8 2.2 323 16.7
2006-03-03 11:51:48 51°8.787 2°34.069 7.1 1.6 336 16.4
2006-03-03 11:52:48 51°8.824 2°34.114 65.5 4.9 66 16.6
2006-03-03 11:53:47 51°8.86 2°34.246 52.6 5.5 49 16.1
2006-03-03 11:54:47 51°8.901 2°34.371 80.3 4.7 82 16.1
2006-03-03 11:55:47 51°8.9 2°34.479 88.4 3.7 94 16.4
2006-03-03 11:56:48 51°8.899 2°34.573 84 3.4 91 17.1
2006-03-03 11:57:47 51°8.897 2°34.66 88.2 3.4 98 17.1
2006-03-03 11:58:48 51°8.889 2°34.747 91 3.2 99 16.8
2006-03-03 11:59:47 51°8.884 2°34.828 89.2 3.1 97 16.9
2006-03-03 12:00:48 51°8.877 2°34.91 90.7 3.1 97 16.9
2006-03-03 12:01:48 51°8.872 2°34.99 89.2 3 96 17.1
2006-03-03 12:02:48 51°8.87 2°35.07 88.2 3.1 93 17
2006-03-03 12:03:48 51°8.867 2°35.152 88.3 3.1 92 16.9
2006-03-03 12:04:47 51°8.866 2°35.234 87.3 3.1 91 16.6
2006-03-03 12:05:48 51°8.865 2°35.319 87 3.2 91 16.3
2006-03-03 12:06:47 51°8.865 2°35.403 87.3 3.2 92 16
2006-03-03 12:07:48 51°8.865 2°35.49 86.3 3.2 88 15.2
2006-03-03 12:08:47 51°8.868 2°35.574 85.2 3.2 86 14.7
2006-03-03 12:09:48 51°8.87 2°35.661 85.3 3.3 89 14.2
2006-03-03 12:10:48 51°8.876 2°35.748 81.2 3.3 84 13.6
2006-03-03 12:11:47 51°8.885 2°35.832 79 3.3 79 13.2
2006-03-03 12:12:48 51°8.895 2°35.92 79.5 3.3 80 12.8
2006-03-03 12:13:47 51°8.903 2°36.006 79.7 3.4 79 12.3
2006-03-03 12:14:48 51°8.912 2°36.096 80 3.4 81 11.9
2006-03-03 12:15:47 51°8.922 2°36.183 73.5 3.4 72 11.6
2006-03-03 12:16:47 51°8.942 2°36.266 67 3.4 66 11.5
2006-03-03 12:17:47 51°8.964 2°36.351 66.7 3.5 67 11.6
2006-03-03 12:18:47 51°8.986 2°36.437 67.7 3.6 71 11.6
2006-03-03 12:19:47 51°9.008 2°36.525 68.1 3.5 70 11.7
2006-03-03 12:20:48 51°9.031 2°36.614 67.6 3.6 70 11.7
2006-03-03 12:21:47 51°9.053 2°36.701 68.7 3.6 69 11.7
2006-03-03 12:22:47 51°9.073 2°36.792 68.3 3.6 68 11.8
2006-03-03 12:23:48 51°9.094 2°36.884 69.4 3.7 73 11.7
2006-03-03 12:24:47 51°9.115 2°36.975 69.6 3.7 70 11.8
2006-03-03 12:25:47 51°9.136 2°37.066 69.1 3.7 71 11.9
2006-03-03 12:26:47 51°9.157 2°37.16 70 3.8 69 11.9
2006-03-03 12:27:47 51°9.18 2°37.253 68.6 3.8 69 11.9
2006-03-03 12:28:47 51°9.202 2°37.349 69.6 3.9 72 12
2006-03-03 12:29:48 51°9.225 2°37.446 67.9 3.9 70 12.1
2006-03-03 12:30:48 51°9.252 2°37.538 62.6 3.9 66 12.1
2006-03-03 12:31:47 51°9.278 2°37.623 62.6 3.5 65 12.2
2006-03-03 12:32:48 51°9.306 2°37.698 54.8 3.1 61 12.4
2006-03-03 12:33:48 51°9.334 2°37.759 45.4 2.8 49 12.4
2006-03-03 12:34:47 51°9.365 2°37.813 40.6 2.8 47 12.7
2006-03-03 12:35:47 51°9.398 2°37.866 40.9 2.9 47 12.8
2006-03-03 12:36:48 51°9.429 2°37.923 43 2.9 50 13
2006-03-03 12:37:48 51°9.456 2°37.986 58.8 2.9 62 13
2006-03-03 12:38:48 51°9.474 2°38.057 67.6 2.9 72 13
2006-03-03 12:39:48 51°9.488 2°38.129 71.7 2.9 70 13
2006-03-03 12:40:47 51°9.498 2°38.202 82.4 2.9 83 13
2006-03-03 12:41:47 51°9.501 2°38.286 99.1 3.4 95 13
2006-03-03 12:42:47 51°9.484 2°38.369 127.9 3.1 113 12.8
2006-03-03 12:43:47 51°9.462 2°38.434 133.5 2.5 116 12.7
2006-03-03 12:44:47 51°9.446 2°38.491 131.2 2.2 112 12.6
2006-03-03 12:45:47 51°9.434 2°38.543 129.7 2 107 12.4
2006-03-03 12:46:47 51°9.425 2°38.59 129.5 1.8 109 12.4
2006-03-03 12:47:48 51°9.416 2°38.637 129.3 2 111 12.3
2006-03-03 12:48:48 51°9.409 2°38.704 94.4 2.9 92 12.1
2006-03-03 12:49:47 51°9.425 2°38.79 58.4 5.1 64 12.2
2006-03-03 12:50:48 51°9.478 2°39.007 75.8 10.5 75 12
2006-03-03 12:51:48 51°9.528 2°39.345 78.6 13.7 77 11.7
2006-03-03 12:52:48 51°9.584 2°39.697 78.7 13.7 75 11.4
2006-03-03 12:53:48 51°9.642 2°40.048 77.4 13.6 75 11.1
2006-03-03 12:54:48 51°9.703 2°40.398 77.3 13.7 75 11.1
2006-03-03 12:55:48 51°9.765 2°40.749 77.2 13.8 74 10.9
2006-03-03 12:56:47 51°9.827 2°41.095 78.2 13.9 73 10.8
2006-03-03 12:57:48 51°9.892 2°41.456 77.9 14 75 10.7
2006-03-03 12:58:48 51°9.958 2°41.812 76.9 14 73 10.7
2006-03-03 12:59:48 51°10.029 2°42.165 70.5 14.1 66 10.8
2006-03-03 13:00:48 51°10.139 2°42.496 66.3 14.2 63 11
2006-03-03 13:01:48 51°10.248 2°42.828 66.1 14.2 63 11.1
2006-03-03 13:02:48 51°10.355 2°43.16 64.5 13.9 61 11
2006-03-03 13:03:47 51°10.462 2°43.478 66 13.9 62 11.1
2006-03-03 13:04:48 51°10.575 2°43.809 66.4 14 62 11.1
2006-03-03 13:05:48 51°10.687 2°44.136 65.5 14.1 62 11.1
2006-03-03 13:06:48 51°10.805 2°44.463 62.9 14.3 58 11.3
2006-03-03 13:07:47 51°10.923 2°44.784 65.4 14.3 61 11.5
2006-03-03 13:08:48 51°11.043 2°45.117 66.4 14.3 62 11.7
2006-03-03 13:09:48 51°11.155 2°45.449 66.6 14.3 62 11.9
2006-03-03 13:10:48 51°11.271 2°45.779 65.4 14.2 61 12.1
2006-03-03 13:11:48 51°11.386 2°46.108 65.7 14.2 60 12.3
2006-03-03 13:12:48 51°11.502 2°46.431 67.3 14 62 12.6
2006-03-03 13:13:48 51°11.615 2°46.754 65.2 14 60 12.8
2006-03-03 13:14:48 51°11.73 2°47.081 65.7 14.2 59 13
2006-03-03 13:15:48 51°11.845 2°47.41 65.6 14.3 60 13.3
2006-03-03 13:16:48 51°11.962 2°47.739 65.3 14.3 60 13.5
2006-03-03 13:17:48 51°12.079 2°48.07 66 14.4 61 13.6
2006-03-03 13:18:48 51°12.196 2°48.402 66.1 14.4 60 13.6
2006-03-03 13:19:48 51°12.314 2°48.735 66.4 14.5 61 13.6
2006-03-03 13:20:48 51°12.431 2°49.072 67 14.6 60 13.5
2006-03-03 13:21:48 51°12.551 2°49.407 66.6 14.6 61 13.5
2006-03-03 13:22:48 51°12.67 2°49.746 66.1 14.6 61 13.6
2006-03-03 13:23:48 51°12.789 2°50.085 65.8 14.6 61 13.5
2006-03-03 13:24:48 51°12.913 2°50.418 62.4 14.6 58 13.3
2006-03-03 13:25:48 51°13.047 2°50.741 61.9 14.7 57 13.4
2006-03-03 13:26:48 51°13.183 2°51.061 61.2 14.6 57 13.4
2006-03-03 13:27:48 51°13.318 2°51.384 60.6 14.6 56 13.3
2006-03-03 13:28:48 51°13.452 2°51.71 61.5 14.7 56 13.4
2006-03-03 13:29:48 51°13.588 2°52.033 61.8 14.7 57 13.3
2006-03-03 13:30:48 51°13.723 2°52.357 60.5 14.7 56 13.3
2006-03-03 13:31:48 51°13.855 2°52.672 61.6 12.5 56 13.2
2006-03-03 13:32:48 51°13.94 2°52.88 62.1 8 57 13.2
2006-03-03 13:33:48 51°14.036 2°53.106 60.2 13.5 55 12.9
2006-03-03 13:34:48 51°14.158 2°53.438 68.8 14.7 64 12.8
2006-03-03 13:35:48 51°14.265 2°53.791 67.9 14.8 62 12.5
2006-03-03 13:36:48 51°14.364 2°54.151 75.8 14.8 68 12.4
2006-03-03 13:37:47 51°14.415 2°54.523 94.4 14.4 89 13.4
2006-03-03 13:38:48 51°14.39 2°54.876 111.4 12.8 100 13.5
2006-03-03 13:39:48 51°14.315 2°55.146 134.2 9.6 130 -999
2006-03-03 13:40:48 51°14.217 2°55.316 144.6 8.2 142 -999
2006-03-03 13:41:48 51°14.103 2°55.42 157 7.6 154 -999
2006-03-03 13:42:48 51°13.99 2°55.507 157.9 7.5 154 -999
2006-03-03 13:43:48 51°13.889 2°55.586 158.1 6.3 155 -999
2006-03-03 13:44:48 51°13.8 2°55.658 153.5 5.8 150 -999
2006-03-03 13:45:48 51°13.73 2°55.752 138 5.4 133 -999
2006-03-03 13:46:47 51°13.677 2°55.862 128 5 124 13.5
2006-03-03 13:47:47 51°13.641 2°55.956 121.5 3.6 121 4.9
2006-03-03 13:48:47 51°13.62 2°56.03 120.4 2.8 112 12.9
2006-03-03 13:49:47 51°13.605 2°56.078 128.8 1.5 133 11.7
2006-03-03 13:50:47 51°13.598 2°56.091 137.6 -999 276 12.2
2006-03-03 13:51:47 51°13.597 2°56.092 131.2 0.5 145 12.1
2006-03-03 13:52:47 51°13.596 2°56.095 126.6 0.1 112 11.8
2006-03-03 13:53:47 51°13.598 2°56.096 127.7 0.2 297 11.3
2006-03-03 13:54:47 51°13.598 2°56.095 128.4 0.2 110 11.1
2006-03-03 13:55:49 51°13.598 2°56.094 133 0.1 93 11.4
2006-03-03 13:56:51 51°13.599 2°56.095 131.6 -999 154 -999